TimePDT,TemperatureF,Dew PointF,Humidity,Sea Level PressureIn,VisibilityMPH,Wind Direction,Wind SpeedMPH,Gust SpeedMPH,PrecipitationIn,Events,Conditions,WindDirDegrees,DateUTC
12:54 AM,64.9,51.1,61,29.88,10.0,Calm,Calm,-,N/A,,Clear,0,2013-05-29 07:54:00
1:54 AM,62.1,51.1,67,29.89,10.0,NNW,5.8,-,N/A,,Clear,330,2013-05-29 08:54:00
2:54 AM,62.1,52.0,70,29.88,10.0,North,3.5,-,N/A,,Clear,350,2013-05-29 09:54:00
3:54 AM,62.1,50.0,65,29.88,10.0,North,5.8,-,N/A,,Clear,350,2013-05-29 10:54:00
4:54 AM,61.0,48.9,64,29.88,10.0,North,6.9,-,N/A,,Clear,10,2013-05-29 11:54:00
5:54 AM,61.0,48.9,64,29.89,9.0,NE,3.5,-,N/A,,Clear,40,2013-05-29 12:54:00
6:54 AM,64.0,50.0,60,29.91,10.0,Calm,Calm,-,N/A,,Clear,0,2013-05-29 13:54:00
7:54 AM,68.0,48.9,50,29.92,10.0,NW,8.1,-,N/A,,Clear,310,2013-05-29 14:54:00
8:54 AM,69.1,48.9,49,29.92,10.0,WNW,6.9,-,N/A,,Clear,300,2013-05-29 15:54:00
9:54 AM,73.9,44.1,34,29.91,10.0,WNW,15.0,19.6,N/A,,Clear,300,2013-05-29 16:54:00
10:54 AM,75.9,44.1,32,29.91,10.0,WNW,11.5,17.3,N/A,,Clear,300,2013-05-29 17:54:00
11:54 AM,78.1,45.0,31,29.89,10.0,Variable,6.9,-,N/A,,Clear,0,2013-05-29 18:54:00
12:54 PM,78.1,45.0,31,29.86,10.0,SW,5.8,-,N/A,,Clear,220,2013-05-29 19:54:00
1:54 PM,81.0,45.0,28,29.83,10.0,WSW,8.1,-,N/A,,Clear,250,2013-05-29 20:54:00
2:54 PM,84.0,44.1,25,29.81,10.0,NW,9.2,23.0,N/A,,Clear,320,2013-05-29 21:54:00
3:54 PM,84.0,48.0,28,29.78,10.0,WNW,13.8,19.6,N/A,,Clear,290,2013-05-29 22:54:00
4:54 PM,86.0,48.9,28,29.77,10.0,NW,10.4,20.7,N/A,,Partly Cloudy,320,2013-05-29 23:54:00
5:54 PM,87.1,46.0,24,29.76,10.0,NW,19.6,23.0,N/A,,Partly Cloudy,310,2013-05-30 00:54:00
6:54 PM,84.9,44.1,24,29.75,10.0,NNW,17.3,-,N/A,,Clear,340,2013-05-30 01:54:00
7:54 PM,81.0,46.9,30,29.76,10.0,NNW,10.4,-,N/A,,Clear,340,2013-05-30 02:54:00
8:54 PM,77.0,48.0,36,29.79,10.0,NNW,9.2,-,N/A,,Clear,340,2013-05-30 03:54:00
9:54 PM,73.0,46.9,39,29.83,10.0,NNW,10.4,-,N/A,,Clear,340,2013-05-30 04:54:00
10:54 PM,71.1,43.0,36,29.85,10.0,NNW,9.2,-,N/A,,Clear,340,2013-05-30 05:54:00
11:54 PM,68.0,45.0,43,29.87,10.0,West,5.8,-,N/A,,Clear,280,2013-05-30 06:54:00